Time;durP1;ratioP1;P1;durP2;ratioP2;P2;SDS_P1;SDS_P2;PMS_P1;PMS_P2;Temp;Humidity;BMP_temperature;BMP_pressure;BME280_temperature;BME280_humidity;BME280_pressure;Samples;Min_cycle;Max_cycle;Signal;HPM_P1;HPM_P2
2021/11/08 00:07:33;;;;;;;22.63;11.40;;;;;;;8.28;92.98;100627.41;31592174;28;20063;-76
2021/11/08 00:22:38;;;;;;;23.47;11.40;;;;;;;8.42;94.18;100616.59;31582915;28;20051;-75
2021/11/08 00:37:40;;;;;;;22.20;11.47;;;;;;;8.49;95.89;100584.13;31612507;28;20416;-78
2021/11/08 00:52:43;;;;;;;24.43;10.83;;;;;;;8.57;97.32;100567.84;31586754;28;20056;-77
2021/11/08 01:07:46;;;;;;;24.23;11.30;;;;;;;8.40;100.00;100551.28;31594985;28;20054;-78
2021/11/08 01:22:49;;;;;;;26.53;12.23;;;;;;;8.35;100.00;100524.63;31600013;28;20061;-78
2021/11/08 01:38:00;;;;;;;24.70;12.30;;;;;;;8.43;100.00;100530.78;31577591;28;20519;-77
2021/11/08 01:53:03;;;;;;;25.33;12.57;;;;;;;8.54;100.00;100516.03;31590383;28;20060;-78
2021/11/08 02:08:05;;;;;;;30.70;12.10;;;;;;;8.52;100.00;100512.19;31586753;28;20052;-80
2021/11/08 02:23:08;;;;;;;22.40;11.57;;;;;;;8.55;100.00;100468.88;31553977;28;20040;-79
2021/11/08 02:53:44;;;;;;;23.43;11.70;;;;;;;8.58;100.00;100483.56;31553155;28;20052;-76
2021/11/08 03:08:46;;;;;;;23.97;11.93;;;;;;;8.64;100.00;100464.97;31594906;28;20328;-76
2021/11/08 03:23:50;;;;;;;22.30;10.90;;;;;;;8.73;100.00;100447.13;31602884;28;20048;-76
2021/11/08 03:38:52;;;;;;;24.00;11.17;;;;;;;8.83;100.00;100465.22;31587707;28;20047;-75
2021/11/08 03:53:54;;;;;;;39.97;22.13;;;;;;;8.94;100.00;100461.69;31597997;28;20060;-75
2021/11/08 04:08:56;;;;;;;46.03;26.77;;;;;;;9.11;100.00;100488.63;31587251;28;20052;-77
2021/11/08 04:23:57;;;;;;;46.73;25.40;;;;;;;9.29;100.00;100471.44;31593923;28;20036;-75
2021/11/08 05:40:07;;;;;;;37.87;22.13;;;;;;;10.03;100.00;100437.38;31575275;28;20051;-76
2021/11/08 05:55:13;;;;;;;43.57;22.90;;;;;;;10.19;100.00;100459.31;31591760;28;20051;-77
2021/11/08 06:56:24;;;;;;;32.27;15.03;;;;;;;10.80;100.00;100396.81;31592349;28;20055;-77
2021/11/08 07:11:26;;;;;;;19.93;8.70;;;;;;;10.93;100.00;100390.38;31557772;28;20105;-77
2021/11/08 07:26:28;;;;;;;23.27;10.67;;;;;;;11.09;100.00;100413.41;31570849;28;20056;-78
2021/11/08 07:41:30;;;;;;;19.60;9.10;;;;;;;11.26;100.00;100402.22;31546594;28;20494;-80
2021/11/08 07:56:33;;;;;;;24.97;9.60;;;;;;;11.40;100.00;100430.31;31571091;28;20048;-77
2021/11/08 08:11:35;;;;;;;24.70;10.07;;;;;;;11.54;100.00;100433.56;31581975;28;20055;-78
2021/11/08 08:26:39;;;;;;;21.83;10.73;;;;;;;11.61;100.00;100449.75;31563757;28;20048;-78
2021/11/08 08:41:42;;;;;;;22.73;10.93;;;;;;;11.68;100.00;100431.75;31569976;28;20423;-77
2021/11/08 08:56:44;;;;;;;19.30;10.23;;;;;;;11.80;100.00;100395.81;31600271;28;20052;-78
2021/11/08 09:11:46;;;;;;;23.53;9.87;;;;;;;11.84;100.00;100399.22;31609978;28;20417;-79
2021/11/08 09:26:49;;;;;;;25.63;10.63;;;;;;;11.91;100.00;100390.91;31605198;28;20079;-77
2021/11/08 09:41:55;;;;;;;20.17;9.27;;;;;;;12.01;100.00;100383.75;31576294;28;20370;-76
2021/11/08 09:56:59;;;;;;;24.67;9.60;;;;;;;12.07;100.00;100398.34;31587535;28;20044;-77
2021/11/08 10:12:07;;;;;;;23.57;9.83;;;;;;;12.19;100.00;100384.13;31575636;28;20584;-79
2021/11/08 10:27:11;;;;;;;24.43;10.07;;;;;;;12.31;100.00;100369.84;31578558;28;20044;-79
2021/11/08 10:42:24;;;;;;;24.90;10.50;;;;;;;12.48;100.00;100374.13;31603441;28;20493;-78
2021/11/08 10:57:28;;;;;;;24.00;12.80;;;;;;;12.63;100.00;100382.72;31530338;28;20520;-79
2021/11/08 11:12:31;;;;;;;19.23;11.20;;;;;;;12.64;100.00;100327.84;31592405;28;20060;-79
2021/11/08 11:27:37;;;;;;;26.17;13.47;;;;;;;12.83;100.00;100355.38;31601276;28;20123;-78
2021/11/08 11:42:51;;;;;;;21.37;10.40;;;;;;;12.83;100.00;100358.88;31587401;28;20599;-76
2021/11/08 11:58:00;;;;;;;30.20;11.63;;;;;;;12.85;100.00;100358.47;31590241;28;20059;-77
2021/11/08 12:13:12;;;;;;;29.87;13.20;;;;;;;12.85;100.00;100374.81;31571466;28;20054;-78
2021/11/08 12:28:23;;;;;;;29.23;13.53;;;;;;;12.84;100.00;100386.88;31577336;28;20049;-78
2021/11/08 12:43:28;;;;;;;24.20;10.73;;;;;;;12.79;100.00;100388.16;31580828;28;20058;-79
2021/11/08 12:58:43;;;;;;;22.00;9.97;;;;;;;12.88;100.00;100379.41;31602025;28;20056;-77
2021/11/08 13:14:01;;;;;;;26.33;10.73;;;;;;;12.87;100.00;100372.41;31597524;28;20060;-76
2021/11/08 13:29:13;;;;;;;18.67;8.83;;;;;;;12.88;100.00;100425.72;31596299;28;20048;-77
2021/11/08 13:44:15;;;;;;;25.10;9.70;;;;;;;12.76;100.00;100415.50;31602827;28;20052;-76
2021/11/08 13:59:24;;;;;;;29.60;11.87;;;;;;;12.70;100.00;100417.22;31608074;28;20087;-76
2021/11/08 14:14:28;;;;;;;29.70;13.37;;;;;;;12.70;100.00;100433.56;31571761;28;20055;-79
2021/11/08 14:29:33;;;;;;;29.00;11.37;;;;;;;12.64;100.00;100455.84;31598558;28;20055;-77
2021/11/08 14:44:45;;;;;;;21.63;10.83;;;;;;;12.53;100.00;100466.19;31577566;28;20754;-76
2021/11/08 14:59:53;;;;;;;25.87;12.70;;;;;;;12.49;100.00;100438.28;31603087;28;20060;-76
2021/11/08 15:15:08;;;;;;;26.60;12.30;;;;;;;12.40;100.00;100445.50;31623949;28;20409;-77
2021/11/08 15:30:11;;;;;;;22.53;10.47;;;;;;;12.39;100.00;100474.66;31620182;28;20056;-78
2021/11/08 15:45:14;;;;;;;25.83;11.37;;;;;;;12.35;100.00;100473.97;31582554;28;20370;-76
2021/11/08 16:00:16;;;;;;;30.13;13.23;;;;;;;12.46;100.00;100469.09;31593372;28;20135;-76
2021/11/08 16:15:19;;;;;;;25.87;12.33;;;;;;;12.43;100.00;100491.72;31597336;28;20052;-76
2021/11/08 16:30:21;;;;;;;24.60;11.67;;;;;;;12.38;100.00;100497.63;31617715;28;20052;-77
2021/11/08 16:45:26;;;;;;;24.37;10.80;;;;;;;12.29;100.00;100491.97;31602873;28;20044;-75
2021/11/08 17:00:28;;;;;;;23.97;11.60;;;;;;;12.15;100.00;100498.50;31604609;28;20062;-76
2021/11/08 17:15:32;;;;;;;19.27;9.70;;;;;;;12.05;100.00;100496.72;31600834;28;20055;-76
2021/11/08 17:30:34;;;;;;;15.80;10.13;;;;;;;11.68;100.00;100508.69;31606476;28;20144;-77
2021/11/08 17:45:36;;;;;;;15.40;7.93;;;;;;;11.53;100.00;100523.72;31604327;28;20469;-79
2021/11/08 18:00:41;;;;;;;13.93;8.27;;;;;;;11.38;100.00;100523.16;31606858;28;20056;-80
2021/11/08 18:15:45;;;;;;;18.10;9.60;;;;;;;11.26;99.29;100554.41;31601797;28;20048;-79
2021/11/08 18:30:51;;;;;;;14.27;8.03;;;;;;;10.96;98.21;100594.44;31581505;28;20055;-75
2021/11/08 18:45:53;;;;;;;13.53;7.13;;;;;;;10.79;96.44;100653.25;31577722;28;20489;-75
2021/11/08 19:00:56;;;;;;;13.53;6.23;;;;;;;10.43;98.37;100688.16;31555972;28;20052;-76
2021/11/08 19:16:00;;;;;;;12.53;5.90;;;;;;;10.03;98.58;100692.34;31589813;28;20515;-74
2021/11/08 19:31:04;;;;;;;10.40;6.00;;;;;;;9.69;100.00;100659.66;31570914;28;20048;-76
2021/11/08 19:46:06;;;;;;;26.50;13.70;;;;;;;9.48;100.00;100657.88;31570875;28;20047;-75
2021/11/08 20:01:08;;;;;;;20.70;10.90;;;;;;;9.27;100.00;100628.97;31596338;28;20063;-75
2021/11/08 20:16:12;;;;;;;21.60;10.17;;;;;;;9.27;100.00;100630.91;31594164;28;20045;-75
2021/11/08 21:16:53;;;;;;;17.27;6.77;;;;;;;9.00;100.00;100709.19;31603805;28;20519;-79
2021/11/08 21:32:30;;;;;;;11.93;5.83;;;;;;;8.64;100.00;100679.53;31560674;28;20049;-78
2021/11/08 21:47:33;;;;;;;;;;;;;;;8.55;100.00;100695.41;31597351;28;20142;-79
2021/11/08 22:02:35;;;;;;;9.13;4.27;;;;;;;8.63;100.00;100704.28;31610170;28;19920;-79
2021/11/08 22:17:37;;;;;;;6.20;2.80;;;;;;;8.67;100.00;100697.72;31603737;28;20066;-79
2021/11/08 22:32:39;;;;;;;8.03;3.60;;;;;;;8.67;100.00;100729.41;31559688;28;20048;-81
2021/11/08 22:47:42;;;;;;;7.67;4.33;;;;;;;8.61;100.00;100709.31;31594103;28;20072;-79
2021/11/08 23:02:47;;;;;;;6.40;3.17;;;;;;;8.44;100.00;100706.25;31594516;28;20101;-79
2021/11/08 23:17:49;;;;;;;4.77;2.90;;;;;;;8.41;100.00;100707.03;31597655;28;20047;-78
2021/11/08 23:32:51;;;;;;;6.73;3.07;;;;;;;8.43;100.00;100707.41;31630282;28;20059;-79
2021/11/08 23:47:53;;;;;;;7.47;3.90;;;;;;;8.43;100.00;100710.13;31608709;28;20482;-78
